sensor_id;sensor_type;location;lat;lon;timestamp;temperature;humidity
6724;DHT22;3399;52.530;13.304;2023-04-16T00:00:15;10.70;99.90
6724;DHT22;3399;52.530;13.304;2023-04-16T00:02:41;10.70;99.90
6724;DHT22;3399;52.530;13.304;2023-04-16T00:05:06;10.80;99.90
6724;DHT22;3399;52.530;13.304;2023-04-16T00:07:32;10.80;99.90
6724;DHT22;3399;52.530;13.304;2023-04-16T00:09:57;10.80;99.90
6724;DHT22;3399;52.530;13.304;2023-04-16T00:12:23;10.80;99.90
6724;DHT22;3399;52.530;13.304;2023-04-16T00:14:48;10.80;99.90
6724;DHT22;3399;52.530;13.304;2023-04-16T00:17:14;10.80;99.90
6724;DHT22;3399;52.530;13.304;2023-04-16T00:19:40;10.80;99.90
6724;DHT22;3399;52.530;13.304;2023-04-16T00:22:05;10.80;99.90
6724;DHT22;3399;52.530;13.304;2023-04-16T00:24:31;10.80;99.90
6724;DHT22;3399;52.530;13.304;2023-04-16T00:26:56;10.70;99.90
6724;DHT22;3399;52.530;13.304;2023-04-16T00:29:22;10.70;99.90
6724;DHT22;3399;52.530;13.304;2023-04-16T00:31:47;10.70;99.90
6724;DHT22;3399;52.530;13.304;2023-04-16T00:34:13;10.70;99.90
6724;DHT22;3399;52.530;13.304;2023-04-16T00:36:38;10.70;99.90
6724;DHT22;3399;52.530;13.304;2023-04-16T00:39:04;10.60;99.90
6724;DHT22;3399;52.530;13.304;2023-04-16T00:41:29;10.70;99.90
6724;DHT22;3399;52.530;13.304;2023-04-16T00:43:55;10.70;99.90
6724;DHT22;3399;52.530;13.304;2023-04-16T00:46:22;10.70;99.90
6724;DHT22;3399;52.530;13.304;2023-04-16T00:48:48;10.70;99.90
6724;DHT22;3399;52.530;13.304;2023-04-16T00:51:15;10.70;99.90
6724;DHT22;3399;52.530;13.304;2023-04-16T00:53:42;10.70;99.90
6724;DHT22;3399;52.530;13.304;2023-04-16T00:56:08;10.60;99.90
6724;DHT22;3399;52.530;13.304;2023-04-16T00:58:34;10.60;99.90
6724;DHT22;3399;52.530;13.304;2023-04-16T01:01:00;10.60;99.90
6724;DHT22;3399;52.530;13.304;2023-04-16T01:03:43;10.50;99.90
6724;DHT22;3399;52.530;13.304;2023-04-16T01:06:10;10.50;99.90
6724;DHT22;3399;52.530;13.304;2023-04-16T01:08:35;10.50;99.90
6724;DHT22;3399;52.530;13.304;2023-04-16T01:11:01;10.50;99.90
6724;DHT22;3399;52.530;13.304;2023-04-16T01:13:40;10.60;99.90
6724;DHT22;3399;52.530;13.304;2023-04-16T01:16:08;10.60;99.90
6724;DHT22;3399;52.530;13.304;2023-04-16T01:18:34;10.50;99.90
6724;DHT22;3399;52.530;13.304;2023-04-16T01:21:01;10.50;99.90
6724;DHT22;3399;52.530;13.304;2023-04-16T01:23:26;10.40;99.90
6724;DHT22;3399;52.530;13.304;2023-04-16T01:25:52;10.40;99.90
6724;DHT22;3399;52.530;13.304;2023-04-16T01:28:17;10.40;99.90
6724;DHT22;3399;52.530;13.304;2023-04-16T01:30:43;10.40;99.90
6724;DHT22;3399;52.530;13.304;2023-04-16T01:33:12;10.40;99.90
6724;DHT22;3399;52.530;13.304;2023-04-16T01:35:38;10.40;99.90
6724;DHT22;3399;52.530;13.304;2023-04-16T01:38:07;10.40;99.90
6724;DHT22;3399;52.530;13.304;2023-04-16T01:40:33;10.40;99.90
6724;DHT22;3399;52.530;13.304;2023-04-16T01:42:59;10.40;99.90
6724;DHT22;3399;52.530;13.304;2023-04-16T01:45:24;10.40;99.90
6724;DHT22;3399;52.530;13.304;2023-04-16T01:47:50;10.40;99.90
6724;DHT22;3399;52.530;13.304;2023-04-16T01:50:17;10.40;99.90
6724;DHT22;3399;52.530;13.304;2023-04-16T01:52:42;10.40;99.90
6724;DHT22;3399;52.530;13.304;2023-04-16T01:55:08;10.30;99.90
6724;DHT22;3399;52.530;13.304;2023-04-16T01:57:34;10.30;99.90
6724;DHT22;3399;52.530;13.304;2023-04-16T02:00:00;10.30;99.90
6724;DHT22;3399;52.530;13.304;2023-04-16T02:02:25;10.30;99.90
6724;DHT22;3399;52.530;13.304;2023-04-16T02:04:53;10.30;99.90
6724;DHT22;3399;52.530;13.304;2023-04-16T02:07:19;10.30;99.90
6724;DHT22;3399;52.530;13.304;2023-04-16T02:09:44;10.30;99.90
6724;DHT22;3399;52.530;13.304;2023-04-16T02:12:10;10.20;99.90
6724;DHT22;3399;52.530;13.304;2023-04-16T02:14:36;10.10;99.90
6724;DHT22;3399;52.530;13.304;2023-04-16T02:17:02;10.10;99.90
6724;DHT22;3399;52.530;13.304;2023-04-16T02:19:27;10.10;99.90
6724;DHT22;3399;52.530;13.304;2023-04-16T02:21:53;10.10;99.90
6724;DHT22;3399;52.530;13.304;2023-04-16T02:24:19;10.10;99.90
6724;DHT22;3399;52.530;13.304;2023-04-16T02:26:45;10.10;99.90
6724;DHT22;3399;52.530;13.304;2023-04-16T02:29:11;10.10;99.90
6724;DHT22;3399;52.530;13.304;2023-04-16T02:31:36;10.00;99.90
6724;DHT22;3399;52.530;13.304;2023-04-16T02:34:02;10.10;99.90
6724;DHT22;3399;52.530;13.304;2023-04-16T02:36:28;10.00;99.90
6724;DHT22;3399;52.530;13.304;2023-04-16T02:38:54;10.00;99.90
6724;DHT22;3399;52.530;13.304;2023-04-16T02:41:19;10.00;99.90
6724;DHT22;3399;52.530;13.304;2023-04-16T02:43:44;10.00;99.90
6724;DHT22;3399;52.530;13.304;2023-04-16T02:46:10;9.90;99.90
6724;DHT22;3399;52.530;13.304;2023-04-16T02:48:35;9.90;99.90
6724;DHT22;3399;52.530;13.304;2023-04-16T02:51:01;9.90;99.90
6724;DHT22;3399;52.530;13.304;2023-04-16T02:53:26;9.90;99.90
6724;DHT22;3399;52.530;13.304;2023-04-16T02:55:53;9.90;99.90
6724;DHT22;3399;52.530;13.304;2023-04-16T02:58:20;9.90;99.90
6724;DHT22;3399;52.530;13.304;2023-04-16T03:00:45;9.80;99.90
6724;DHT22;3399;52.530;13.304;2023-04-16T03:03:11;9.80;99.90
6724;DHT22;3399;52.530;13.304;2023-04-16T03:05:37;9.80;99.90
6724;DHT22;3399;52.530;13.304;2023-04-16T03:08:02;9.70;99.90
6724;DHT22;3399;52.530;13.304;2023-04-16T03:10:28;9.80;99.90
6724;DHT22;3399;52.530;13.304;2023-04-16T03:12:53;9.70;99.90
6724;DHT22;3399;52.530;13.304;2023-04-16T03:15:19;9.70;99.90
6724;DHT22;3399;52.530;13.304;2023-04-16T03:17:45;9.60;99.90
6724;DHT22;3399;52.530;13.304;2023-04-16T03:20:10;9.60;99.90
6724;DHT22;3399;52.530;13.304;2023-04-16T03:22:37;9.60;99.90
6724;DHT22;3399;52.530;13.304;2023-04-16T03:25:03;9.50;99.90
6724;DHT22;3399;52.530;13.304;2023-04-16T03:27:29;9.50;99.90
6724;DHT22;3399;52.530;13.304;2023-04-16T03:29:54;9.50;99.90
6724;DHT22;3399;52.530;13.304;2023-04-16T03:32:20;9.50;99.90
6724;DHT22;3399;52.530;13.304;2023-04-16T03:34:45;9.50;99.90
6724;DHT22;3399;52.530;13.304;2023-04-16T03:37:11;9.50;99.90
6724;DHT22;3399;52.530;13.304;2023-04-16T03:39:36;9.50;99.90
6724;DHT22;3399;52.530;13.304;2023-04-16T03:42:02;9.50;99.90
6724;DHT22;3399;52.530;13.304;2023-04-16T03:44:28;9.50;99.90
6724;DHT22;3399;52.530;13.304;2023-04-16T03:46:54;9.40;99.90
6724;DHT22;3399;52.530;13.304;2023-04-16T03:49:19;9.40;99.90
6724;DHT22;3399;52.530;13.304;2023-04-16T03:51:45;9.40;99.90
6724;DHT22;3399;52.530;13.304;2023-04-16T03:54:11;9.40;99.90
6724;DHT22;3399;52.530;13.304;2023-04-16T03:56:36;9.40;99.90
6724;DHT22;3399;52.530;13.304;2023-04-16T03:59:02;9.50;99.90
6724;DHT22;3399;52.530;13.304;2023-04-16T04:01:27;9.40;99.90
6724;DHT22;3399;52.530;13.304;2023-04-16T04:03:53;9.40;99.90
6724;DHT22;3399;52.530;13.304;2023-04-16T04:06:18;9.40;99.90
6724;DHT22;3399;52.530;13.304;2023-04-16T04:08:44;9.40;99.90
6724;DHT22;3399;52.530;13.304;2023-04-16T04:11:09;9.40;99.90
6724;DHT22;3399;52.530;13.304;2023-04-16T04:13:35;9.40;99.90
6724;DHT22;3399;52.530;13.304;2023-04-16T04:16:00;9.40;99.90
6724;DHT22;3399;52.530;13.304;2023-04-16T04:18:25;9.40;99.90
6724;DHT22;3399;52.530;13.304;2023-04-16T04:20:51;9.40;99.90
6724;DHT22;3399;52.530;13.304;2023-04-16T04:23:16;9.40;99.90
6724;DHT22;3399;52.530;13.304;2023-04-16T04:25:43;9.40;99.90
6724;DHT22;3399;52.530;13.304;2023-04-16T04:28:08;9.40;99.90
6724;DHT22;3399;52.530;13.304;2023-04-16T04:30:34;9.40;99.90
6724;DHT22;3399;52.530;13.304;2023-04-16T04:33:00;9.30;99.90
6724;DHT22;3399;52.530;13.304;2023-04-16T04:35:25;9.30;99.90
6724;DHT22;3399;52.530;13.304;2023-04-16T04:37:51;9.30;99.90
6724;DHT22;3399;52.530;13.304;2023-04-16T04:40:16;9.30;99.90
6724;DHT22;3399;52.530;13.304;2023-04-16T04:42:42;9.30;99.90
6724;DHT22;3399;52.530;13.304;2023-04-16T04:45:08;9.40;99.90
6724;DHT22;3399;52.530;13.304;2023-04-16T04:47:34;9.30;99.90
6724;DHT22;3399;52.530;13.304;2023-04-16T04:49:59;9.30;99.90
6724;DHT22;3399;52.530;13.304;2023-04-16T04:52:25;9.30;99.90
6724;DHT22;3399;52.530;13.304;2023-04-16T04:54:51;9.40;99.90
6724;DHT22;3399;52.530;13.304;2023-04-16T04:57:17;9.30;99.90
6724;DHT22;3399;52.530;13.304;2023-04-16T04:59:42;9.40;99.90
6724;DHT22;3399;52.530;13.304;2023-04-16T05:02:08;9.30;99.90
6724;DHT22;3399;52.530;13.304;2023-04-16T05:04:33;9.30;99.90
6724;DHT22;3399;52.530;13.304;2023-04-16T05:06:59;9.30;99.90
6724;DHT22;3399;52.530;13.304;2023-04-16T05:09:26;9.30;99.90
6724;DHT22;3399;52.530;13.304;2023-04-16T05:11:51;9.20;99.90
6724;DHT22;3399;52.530;13.304;2023-04-16T05:14:17;9.30;99.90
6724;DHT22;3399;52.530;13.304;2023-04-16T05:16:42;9.30;99.90
6724;DHT22;3399;52.530;13.304;2023-04-16T05:19:08;9.30;99.90
6724;DHT22;3399;52.530;13.304;2023-04-16T05:21:33;9.40;99.90
6724;DHT22;3399;52.530;13.304;2023-04-16T05:23:59;9.40;99.90
6724;DHT22;3399;52.530;13.304;2023-04-16T05:26:24;9.40;99.90
6724;DHT22;3399;52.530;13.304;2023-04-16T05:28:50;9.40;99.90
6724;DHT22;3399;52.530;13.304;2023-04-16T05:31:15;9.40;99.90
6724;DHT22;3399;52.530;13.304;2023-04-16T05:33:41;9.50;99.90
6724;DHT22;3399;52.530;13.304;2023-04-16T05:36:06;9.50;99.90
6724;DHT22;3399;52.530;13.304;2023-04-16T05:38:32;9.50;99.90
6724;DHT22;3399;52.530;13.304;2023-04-16T05:40:57;9.50;99.90
6724;DHT22;3399;52.530;13.304;2023-04-16T05:43:23;9.50;99.90
6724;DHT22;3399;52.530;13.304;2023-04-16T05:45:48;9.50;99.90
6724;DHT22;3399;52.530;13.304;2023-04-16T05:48:14;9.50;99.90
6724;DHT22;3399;52.530;13.304;2023-04-16T05:50:39;9.60;99.90
6724;DHT22;3399;52.530;13.304;2023-04-16T05:53:07;9.60;99.90
6724;DHT22;3399;52.530;13.304;2023-04-16T05:55:33;9.60;99.90
6724;DHT22;3399;52.530;13.304;2023-04-16T05:58:00;9.60;99.90
6724;DHT22;3399;52.530;13.304;2023-04-16T06:00:28;9.60;99.90
6724;DHT22;3399;52.530;13.304;2023-04-16T06:02:54;9.70;99.90
6724;DHT22;3399;52.530;13.304;2023-04-16T06:05:19;9.80;99.90
6724;DHT22;3399;52.530;13.304;2023-04-16T06:07:45;9.80;99.90
6724;DHT22;3399;52.530;13.304;2023-04-16T06:10:10;9.90;99.90
6724;DHT22;3399;52.530;13.304;2023-04-16T06:12:36;10.00;99.90
6724;DHT22;3399;52.530;13.304;2023-04-16T06:15:01;10.00;99.90
6724;DHT22;3399;52.530;13.304;2023-04-16T06:17:27;10.00;99.90
6724;DHT22;3399;52.530;13.304;2023-04-16T06:19:53;10.00;99.90
6724;DHT22;3399;52.530;13.304;2023-04-16T06:22:18;9.90;99.90
6724;DHT22;3399;52.530;13.304;2023-04-16T06:24:44;9.90;99.90
6724;DHT22;3399;52.530;13.304;2023-04-16T06:27:09;9.80;99.90
6724;DHT22;3399;52.530;13.304;2023-04-16T06:29:35;9.90;99.90
6724;DHT22;3399;52.530;13.304;2023-04-16T06:32:01;10.00;99.90
6724;DHT22;3399;52.530;13.304;2023-04-16T06:34:27;10.00;99.90
6724;DHT22;3399;52.530;13.304;2023-04-16T06:36:52;10.10;99.90
6724;DHT22;3399;52.530;13.304;2023-04-16T06:39:18;10.00;99.90
6724;DHT22;3399;52.530;13.304;2023-04-16T06:41:49;10.00;99.90
6724;DHT22;3399;52.530;13.304;2023-04-16T06:44:15;10.00;99.90
6724;DHT22;3399;52.530;13.304;2023-04-16T06:46:41;9.90;99.90
6724;DHT22;3399;52.530;13.304;2023-04-16T06:49:06;9.90;99.90
6724;DHT22;3399;52.530;13.304;2023-04-16T06:51:32;10.00;99.90
6724;DHT22;3399;52.530;13.304;2023-04-16T06:53:58;10.00;99.90
6724;DHT22;3399;52.530;13.304;2023-04-16T06:56:23;10.00;99.90
6724;DHT22;3399;52.530;13.304;2023-04-16T06:58:49;10.10;99.90
6724;DHT22;3399;52.530;13.304;2023-04-16T07:01:16;10.00;99.90
6724;DHT22;3399;52.530;13.304;2023-04-16T07:03:41;10.00;99.90
6724;DHT22;3399;52.530;13.304;2023-04-16T07:06:07;10.00;99.90
6724;DHT22;3399;52.530;13.304;2023-04-16T07:08:32;10.00;99.90
6724;DHT22;3399;52.530;13.304;2023-04-16T07:10:58;10.00;99.90
6724;DHT22;3399;52.530;13.304;2023-04-16T07:13:23;10.00;99.90
6724;DHT22;3399;52.530;13.304;2023-04-16T07:15:49;10.10;99.90
6724;DHT22;3399;52.530;13.304;2023-04-16T07:18:14;10.10;99.90
6724;DHT22;3399;52.530;13.304;2023-04-16T07:20:40;10.00;99.90
6724;DHT22;3399;52.530;13.304;2023-04-16T07:23:06;10.00;99.90
6724;DHT22;3399;52.530;13.304;2023-04-16T07:25:31;10.00;99.90
6724;DHT22;3399;52.530;13.304;2023-04-16T07:27:57;10.00;99.90
6724;DHT22;3399;52.530;13.304;2023-04-16T07:30:22;10.10;99.90
6724;DHT22;3399;52.530;13.304;2023-04-16T07:32:48;10.10;99.90
6724;DHT22;3399;52.530;13.304;2023-04-16T07:35:15;10.10;99.90
6724;DHT22;3399;52.530;13.304;2023-04-16T07:37:40;10.20;99.90
6724;DHT22;3399;52.530;13.304;2023-04-16T07:40:06;10.20;99.90
6724;DHT22;3399;52.530;13.304;2023-04-16T07:42:32;10.20;99.90
6724;DHT22;3399;52.530;13.304;2023-04-16T07:44:58;10.20;99.90
6724;DHT22;3399;52.530;13.304;2023-04-16T07:47:23;10.30;99.90
6724;DHT22;3399;52.530;13.304;2023-04-16T07:49:50;10.30;99.90
6724;DHT22;3399;52.530;13.304;2023-04-16T07:52:16;10.20;99.90
6724;DHT22;3399;52.530;13.304;2023-04-16T07:54:41;10.20;99.90
6724;DHT22;3399;52.530;13.304;2023-04-16T07:57:07;10.20;99.90
6724;DHT22;3399;52.530;13.304;2023-04-16T07:59:32;10.20;99.90
6724;DHT22;3399;52.530;13.304;2023-04-16T08:01:58;10.20;99.90
6724;DHT22;3399;52.530;13.304;2023-04-16T08:04:23;10.30;99.90
6724;DHT22;3399;52.530;13.304;2023-04-16T08:06:50;10.30;99.90
6724;DHT22;3399;52.530;13.304;2023-04-16T08:09:15;10.30;99.90
6724;DHT22;3399;52.530;13.304;2023-04-16T08:11:41;10.40;99.90
6724;DHT22;3399;52.530;13.304;2023-04-16T08:14:07;10.40;99.90
6724;DHT22;3399;52.530;13.304;2023-04-16T08:16:32;10.30;99.90
6724;DHT22;3399;52.530;13.304;2023-04-16T08:18:58;10.20;99.90
6724;DHT22;3399;52.530;13.304;2023-04-16T08:21:25;10.30;99.90
6724;DHT22;3399;52.530;13.304;2023-04-16T08:23:52;10.20;99.90
6724;DHT22;3399;52.530;13.304;2023-04-16T08:26:18;10.20;99.90
6724;DHT22;3399;52.530;13.304;2023-04-16T08:28:43;10.30;99.90
6724;DHT22;3399;52.530;13.304;2023-04-16T08:31:09;10.30;99.90
6724;DHT22;3399;52.530;13.304;2023-04-16T08:33:34;10.30;99.90
6724;DHT22;3399;52.530;13.304;2023-04-16T08:36:00;10.40;99.90
6724;DHT22;3399;52.530;13.304;2023-04-16T08:38:25;10.40;99.90
6724;DHT22;3399;52.530;13.304;2023-04-16T08:40:52;10.50;99.90
6724;DHT22;3399;52.530;13.304;2023-04-16T08:43:20;10.50;99.90
6724;DHT22;3399;52.530;13.304;2023-04-16T08:45:47;10.50;99.90
6724;DHT22;3399;52.530;13.304;2023-04-16T08:48:14;10.40;99.90
6724;DHT22;3399;52.530;13.304;2023-04-16T08:50:40;10.40;99.90
6724;DHT22;3399;52.530;13.304;2023-04-16T08:53:06;10.30;99.90
6724;DHT22;3399;52.530;13.304;2023-04-16T08:55:39;10.30;99.90
6724;DHT22;3399;52.530;13.304;2023-04-16T08:58:11;10.20;99.90
6724;DHT22;3399;52.530;13.304;2023-04-16T09:00:38;10.20;99.90
6724;DHT22;3399;52.530;13.304;2023-04-16T09:03:05;10.30;99.90
6724;DHT22;3399;52.530;13.304;2023-04-16T09:05:32;10.40;99.90
6724;DHT22;3399;52.530;13.304;2023-04-16T09:07:57;10.40;99.90
6724;DHT22;3399;52.530;13.304;2023-04-16T09:10:25;10.50;99.90
6724;DHT22;3399;52.530;13.304;2023-04-16T09:12:50;10.50;99.90
6724;DHT22;3399;52.530;13.304;2023-04-16T09:15:16;10.50;99.90
6724;DHT22;3399;52.530;13.304;2023-04-16T09:17:44;10.60;99.90
6724;DHT22;3399;52.530;13.304;2023-04-16T09:20:10;10.80;99.90
6724;DHT22;3399;52.530;13.304;2023-04-16T09:22:37;11.00;99.90
6724;DHT22;3399;52.530;13.304;2023-04-16T09:25:05;11.10;99.90
6724;DHT22;3399;52.530;13.304;2023-04-16T09:27:30;11.20;99.90
6724;DHT22;3399;52.530;13.304;2023-04-16T09:29:56;11.20;99.90
6724;DHT22;3399;52.530;13.304;2023-04-16T09:32:27;11.10;99.90
6724;DHT22;3399;52.530;13.304;2023-04-16T09:34:57;11.00;99.90
6724;DHT22;3399;52.530;13.304;2023-04-16T09:37:25;11.00;99.90
6724;DHT22;3399;52.530;13.304;2023-04-16T09:40:02;10.80;99.90
6724;DHT22;3399;52.530;13.304;2023-04-16T09:42:32;10.80;99.90
6724;DHT22;3399;52.530;13.304;2023-04-16T09:44:59;10.90;99.90
6724;DHT22;3399;52.530;13.304;2023-04-16T09:47:25;11.00;99.90
6724;DHT22;3399;52.530;13.304;2023-04-16T09:50:02;11.00;99.90
6724;DHT22;3399;52.530;13.304;2023-04-16T09:52:27;11.00;99.90
6724;DHT22;3399;52.530;13.304;2023-04-16T09:54:53;10.90;99.90
6724;DHT22;3399;52.530;13.304;2023-04-16T09:57:20;10.80;99.90
6724;DHT22;3399;52.530;13.304;2023-04-16T09:59:46;10.70;99.90
6724;DHT22;3399;52.530;13.304;2023-04-16T10:02:12;10.70;99.90
6724;DHT22;3399;52.530;13.304;2023-04-16T10:04:51;10.70;99.90
6724;DHT22;3399;52.530;13.304;2023-04-16T10:07:17;10.70;99.90
6724;DHT22;3399;52.530;13.304;2023-04-16T10:09:43;10.60;99.90
6724;DHT22;3399;52.530;13.304;2023-04-16T10:12:09;10.60;99.90
6724;DHT22;3399;52.530;13.304;2023-04-16T10:14:37;10.70;99.90
6724;DHT22;3399;52.530;13.304;2023-04-16T10:17:02;10.80;99.90
6724;DHT22;3399;52.530;13.304;2023-04-16T10:19:29;10.90;99.90
6724;DHT22;3399;52.530;13.304;2023-04-16T10:21:57;10.90;99.90
6724;DHT22;3399;52.530;13.304;2023-04-16T10:24:22;10.80;99.90
6724;DHT22;3399;52.530;13.304;2023-04-16T10:26:51;10.90;99.90
6724;DHT22;3399;52.530;13.304;2023-04-16T10:29:20;10.90;99.90
6724;DHT22;3399;52.530;13.304;2023-04-16T10:31:46;10.90;99.90
6724;DHT22;3399;52.530;13.304;2023-04-16T10:34:12;11.00;99.90
6724;DHT22;3399;52.530;13.304;2023-04-16T10:36:38;11.10;99.90
6724;DHT22;3399;52.530;13.304;2023-04-16T10:39:10;11.20;99.90
6724;DHT22;3399;52.530;13.304;2023-04-16T10:41:37;11.30;99.90
6724;DHT22;3399;52.530;13.304;2023-04-16T10:44:07;11.40;99.90
6724;DHT22;3399;52.530;13.304;2023-04-16T10:46:38;11.40;99.90
6724;DHT22;3399;52.530;13.304;2023-04-16T10:52:00;11.40;99.90
6724;DHT22;3399;52.530;13.304;2023-04-16T10:54:29;11.50;99.90
6724;DHT22;3399;52.530;13.304;2023-04-16T10:56:57;11.40;99.90
6724;DHT22;3399;52.530;13.304;2023-04-16T10:59:23;11.40;99.90
6724;DHT22;3399;52.530;13.304;2023-04-16T11:01:59;11.60;99.90
6724;DHT22;3399;52.530;13.304;2023-04-16T11:04:33;12.10;99.90
6724;DHT22;3399;52.530;13.304;2023-04-16T11:10:04;12.60;99.90
6724;DHT22;3399;52.530;13.304;2023-04-16T11:15:18;13.00;99.90
6724;DHT22;3399;52.530;13.304;2023-04-16T11:17:50;12.90;99.90
6724;DHT22;3399;52.530;13.304;2023-04-16T11:20:23;12.80;99.90
6724;DHT22;3399;52.530;13.304;2023-04-16T11:22:51;12.70;99.90
6724;DHT22;3399;52.530;13.304;2023-04-16T11:25:21;12.50;99.90
6724;DHT22;3399;52.530;13.304;2023-04-16T11:27:47;12.40;99.90
6724;DHT22;3399;52.530;13.304;2023-04-16T11:30:13;12.20;99.90
6724;DHT22;3399;52.530;13.304;2023-04-16T11:32:39;12.00;99.90
6724;DHT22;3399;52.530;13.304;2023-04-16T11:35:13;12.00;99.90
6724;DHT22;3399;52.530;13.304;2023-04-16T11:37:40;12.00;99.90
6724;DHT22;3399;52.530;13.304;2023-04-16T11:40:07;11.80;99.90
6724;DHT22;3399;52.530;13.304;2023-04-16T11:42:34;11.90;99.90
6724;DHT22;3399;52.530;13.304;2023-04-16T11:45:05;11.90;99.90
6724;DHT22;3399;52.530;13.304;2023-04-16T11:47:32;11.90;99.90
6724;DHT22;3399;52.530;13.304;2023-04-16T11:50:17;11.80;99.90
6724;DHT22;3399;52.530;13.304;2023-04-16T11:52:43;11.80;99.90
6724;DHT22;3399;52.530;13.304;2023-04-16T11:55:08;11.90;99.90
6724;DHT22;3399;52.530;13.304;2023-04-16T11:57:34;11.80;99.90
6724;DHT22;3399;52.530;13.304;2023-04-16T12:00:00;11.70;99.90
6724;DHT22;3399;52.530;13.304;2023-04-16T12:02:37;11.70;99.90
6724;DHT22;3399;52.530;13.304;2023-04-16T12:05:04;11.50;99.90
6724;DHT22;3399;52.530;13.304;2023-04-16T12:07:30;11.40;99.90
6724;DHT22;3399;52.530;13.304;2023-04-16T12:10:06;11.40;99.90
6724;DHT22;3399;52.530;13.304;2023-04-16T12:12:32;11.30;99.90
6724;DHT22;3399;52.530;13.304;2023-04-16T12:15:00;11.30;99.90
6724;DHT22;3399;52.530;13.304;2023-04-16T12:17:29;11.30;99.90
6724;DHT22;3399;52.530;13.304;2023-04-16T12:19:57;11.30;99.90
6724;DHT22;3399;52.530;13.304;2023-04-16T12:22:33;11.40;99.90
6724;DHT22;3399;52.530;13.304;2023-04-16T12:25:04;11.30;99.90
6724;DHT22;3399;52.530;13.304;2023-04-16T12:30:15;11.50;99.90
6724;DHT22;3399;52.530;13.304;2023-04-16T12:32:42;11.60;99.90
6724;DHT22;3399;52.530;13.304;2023-04-16T12:35:10;11.80;99.90
6724;DHT22;3399;52.530;13.304;2023-04-16T12:37:36;11.80;99.90
6724;DHT22;3399;52.530;13.304;2023-04-16T12:40:01;11.90;99.90
6724;DHT22;3399;52.530;13.304;2023-04-16T12:42:29;11.90;99.90
6724;DHT22;3399;52.530;13.304;2023-04-16T12:45:03;11.90;99.90
6724;DHT22;3399;52.530;13.304;2023-04-16T12:47:30;11.80;99.90
6724;DHT22;3399;52.530;13.304;2023-04-16T12:49:56;11.70;99.90
6724;DHT22;3399;52.530;13.304;2023-04-16T12:52:23;11.70;99.90
6724;DHT22;3399;52.530;13.304;2023-04-16T12:54:48;11.80;99.90
6724;DHT22;3399;52.530;13.304;2023-04-16T12:57:14;11.80;99.90
6724;DHT22;3399;52.530;13.304;2023-04-16T12:59:40;11.70;99.90
6724;DHT22;3399;52.530;13.304;2023-04-16T13:02:06;11.60;99.90
6724;DHT22;3399;52.530;13.304;2023-04-16T13:04:32;11.60;99.90
6724;DHT22;3399;52.530;13.304;2023-04-16T13:06:57;11.60;99.90
6724;DHT22;3399;52.530;13.304;2023-04-16T13:09:23;11.60;99.90
6724;DHT22;3399;52.530;13.304;2023-04-16T13:11:49;11.60;99.90
6724;DHT22;3399;52.530;13.304;2023-04-16T13:14:14;11.60;99.90
6724;DHT22;3399;52.530;13.304;2023-04-16T13:16:40;11.60;99.90
6724;DHT22;3399;52.530;13.304;2023-04-16T13:19:05;11.70;99.90
6724;DHT22;3399;52.530;13.304;2023-04-16T13:21:32;11.70;99.90
6724;DHT22;3399;52.530;13.304;2023-04-16T13:23:58;11.60;99.90
6724;DHT22;3399;52.530;13.304;2023-04-16T13:26:24;11.60;99.90
6724;DHT22;3399;52.530;13.304;2023-04-16T13:28:50;11.60;99.90
6724;DHT22;3399;52.530;13.304;2023-04-16T13:31:15;11.70;99.90
6724;DHT22;3399;52.530;13.304;2023-04-16T13:33:44;11.70;99.90
6724;DHT22;3399;52.530;13.304;2023-04-16T13:36:09;11.80;99.90
6724;DHT22;3399;52.530;13.304;2023-04-16T13:38:35;11.90;99.90
6724;DHT22;3399;52.530;13.304;2023-04-16T13:41:00;11.90;99.90
6724;DHT22;3399;52.530;13.304;2023-04-16T13:43:26;11.90;99.90
6724;DHT22;3399;52.530;13.304;2023-04-16T13:45:51;12.00;99.90
6724;DHT22;3399;52.530;13.304;2023-04-16T13:48:17;12.00;99.90
6724;DHT22;3399;52.530;13.304;2023-04-16T13:50:42;12.20;99.90
6724;DHT22;3399;52.530;13.304;2023-04-16T13:53:08;12.20;99.90
6724;DHT22;3399;52.530;13.304;2023-04-16T13:55:34;12.30;99.90
6724;DHT22;3399;52.530;13.304;2023-04-16T13:58:00;12.40;99.90
6724;DHT22;3399;52.530;13.304;2023-04-16T14:00:25;12.30;99.90
6724;DHT22;3399;52.530;13.304;2023-04-16T14:02:52;12.30;99.90
6724;DHT22;3399;52.530;13.304;2023-04-16T14:05:17;12.30;99.90
6724;DHT22;3399;52.530;13.304;2023-04-16T14:07:44;12.30;99.90
6724;DHT22;3399;52.530;13.304;2023-04-16T14:10:09;12.30;99.90
6724;DHT22;3399;52.530;13.304;2023-04-16T14:12:35;12.30;99.90
6724;DHT22;3399;52.530;13.304;2023-04-16T14:15:01;12.30;99.90
6724;DHT22;3399;52.530;13.304;2023-04-16T14:17:28;12.20;99.90
6724;DHT22;3399;52.530;13.304;2023-04-16T14:19:54;12.20;99.90
6724;DHT22;3399;52.530;13.304;2023-04-16T14:22:19;12.10;99.90
6724;DHT22;3399;52.530;13.304;2023-04-16T14:24:45;12.10;99.90
6724;DHT22;3399;52.530;13.304;2023-04-16T14:27:11;12.00;99.90
6724;DHT22;3399;52.530;13.304;2023-04-16T14:29:36;11.90;99.90
6724;DHT22;3399;52.530;13.304;2023-04-16T14:32:02;12.10;99.90
6724;DHT22;3399;52.530;13.304;2023-04-16T14:34:28;12.10;99.90
6724;DHT22;3399;52.530;13.304;2023-04-16T14:36:53;12.10;99.90
6724;DHT22;3399;52.530;13.304;2023-04-16T14:39:19;12.10;99.90
6724;DHT22;3399;52.530;13.304;2023-04-16T14:41:45;12.20;99.90
6724;DHT22;3399;52.530;13.304;2023-04-16T14:44:10;12.30;99.90
6724;DHT22;3399;52.530;13.304;2023-04-16T14:46:36;12.40;99.90
6724;DHT22;3399;52.530;13.304;2023-04-16T14:49:03;12.40;99.90
6724;DHT22;3399;52.530;13.304;2023-04-16T14:51:29;12.30;99.90
6724;DHT22;3399;52.530;13.304;2023-04-16T14:53:56;12.40;99.90
6724;DHT22;3399;52.530;13.304;2023-04-16T14:56:21;12.30;99.90
6724;DHT22;3399;52.530;13.304;2023-04-16T14:58:47;12.30;99.90
6724;DHT22;3399;52.530;13.304;2023-04-16T15:01:12;12.20;99.90
6724;DHT22;3399;52.530;13.304;2023-04-16T15:03:39;12.20;99.90
6724;DHT22;3399;52.530;13.304;2023-04-16T15:06:06;12.20;99.90
6724;DHT22;3399;52.530;13.304;2023-04-16T15:08:31;12.10;99.90
6724;DHT22;3399;52.530;13.304;2023-04-16T15:10:57;12.10;99.90
6724;DHT22;3399;52.530;13.304;2023-04-16T15:13:22;12.10;99.90
6724;DHT22;3399;52.530;13.304;2023-04-16T15:15:48;12.10;99.90
6724;DHT22;3399;52.530;13.304;2023-04-16T15:18:14;12.10;99.90
6724;DHT22;3399;52.530;13.304;2023-04-16T15:20:40;12.00;99.90
6724;DHT22;3399;52.530;13.304;2023-04-16T15:23:06;11.90;99.90
6724;DHT22;3399;52.530;13.304;2023-04-16T15:25:31;11.90;99.90
6724;DHT22;3399;52.530;13.304;2023-04-16T15:27:57;11.90;99.90
6724;DHT22;3399;52.530;13.304;2023-04-16T15:30:23;12.00;99.90
6724;DHT22;3399;52.530;13.304;2023-04-16T15:32:49;11.90;99.90
6724;DHT22;3399;52.530;13.304;2023-04-16T15:35:14;11.90;99.90
6724;DHT22;3399;52.530;13.304;2023-04-16T15:37:40;11.90;99.90
6724;DHT22;3399;52.530;13.304;2023-04-16T15:40:06;11.90;99.90
6724;DHT22;3399;52.530;13.304;2023-04-16T15:42:33;12.00;99.90
6724;DHT22;3399;52.530;13.304;2023-04-16T15:44:58;11.90;99.90
6724;DHT22;3399;52.530;13.304;2023-04-16T15:47:24;11.90;99.90
6724;DHT22;3399;52.530;13.304;2023-04-16T15:49:50;11.80;99.90
6724;DHT22;3399;52.530;13.304;2023-04-16T15:52:15;11.80;99.90
6724;DHT22;3399;52.530;13.304;2023-04-16T15:54:41;11.70;99.90